sensor_id;sensor_type;location;lat;lon;timestamp;P1;durP1;ratioP1;P2;durP2;ratioP2
46589;SDS011;32313;48.722;9.362;2023-04-08T00:00:42;18.63;;;16.93;;
46589;SDS011;32313;48.722;9.362;2023-04-08T00:03:09;17.13;;;15.13;;
46589;SDS011;32313;48.722;9.362;2023-04-08T00:05:34;18.40;;;16.57;;
46589;SDS011;32313;48.722;9.362;2023-04-08T00:08:00;17.33;;;15.57;;
46589;SDS011;32313;48.722;9.362;2023-04-08T00:10:26;18.20;;;16.50;;
46589;SDS011;32313;48.722;9.362;2023-04-08T00:12:51;16.17;;;14.63;;
46589;SDS011;32313;48.722;9.362;2023-04-08T00:15:17;18.20;;;16.50;;
46589;SDS011;32313;48.722;9.362;2023-04-08T00:17:43;17.20;;;15.57;;
46589;SDS011;32313;48.722;9.362;2023-04-08T00:20:09;14.50;;;13.10;;
46589;SDS011;32313;48.722;9.362;2023-04-08T00:22:35;18.17;;;16.43;;
46589;SDS011;32313;48.722;9.362;2023-04-08T00:25:01;21.40;;;19.27;;
46589;SDS011;32313;48.722;9.362;2023-04-08T00:27:30;20.10;;;18.00;;
46589;SDS011;32313;48.722;9.362;2023-04-08T00:29:59;19.10;;;17.17;;
46589;SDS011;32313;48.722;9.362;2023-04-08T00:32:26;19.80;;;17.77;;
46589;SDS011;32313;48.722;9.362;2023-04-08T00:34:52;21.20;;;19.00;;
46589;SDS011;32313;48.722;9.362;2023-04-08T00:37:18;20.17;;;18.20;;
46589;SDS011;32313;48.722;9.362;2023-04-08T00:39:43;21.97;;;19.87;;
46589;SDS011;32313;48.722;9.362;2023-04-08T00:42:09;18.17;;;16.37;;
46589;SDS011;32313;48.722;9.362;2023-04-08T00:44:35;22.13;;;19.87;;
46589;SDS011;32313;48.722;9.362;2023-04-08T00:47:00;19.67;;;17.67;;
46589;SDS011;32313;48.722;9.362;2023-04-08T00:49:29;21.93;;;19.03;;
46589;SDS011;32313;48.722;9.362;2023-04-08T00:51:55;22.60;;;20.17;;
46589;SDS011;32313;48.722;9.362;2023-04-08T00:54:21;22.57;;;19.60;;
46589;SDS011;32313;48.722;9.362;2023-04-08T00:56:47;22.10;;;19.90;;
46589;SDS011;32313;48.722;9.362;2023-04-08T00:59:13;20.73;;;18.53;;
46589;SDS011;32313;48.722;9.362;2023-04-08T01:01:42;22.37;;;20.07;;
46589;SDS011;32313;48.722;9.362;2023-04-08T01:07:09;22.43;;;20.03;;
46589;SDS011;32313;48.722;9.362;2023-04-08T01:09:43;21.27;;;19.17;;
46589;SDS011;32313;48.722;9.362;2023-04-08T01:12:12;22.83;;;20.50;;
46589;SDS011;32313;48.722;9.362;2023-04-08T01:14:44;24.27;;;21.10;;
46589;SDS011;32313;48.722;9.362;2023-04-08T01:17:13;22.07;;;19.77;;
46589;SDS011;32313;48.722;9.362;2023-04-08T01:19:41;23.13;;;20.73;;
46589;SDS011;32313;48.722;9.362;2023-04-08T01:22:11;22.03;;;19.73;;
46589;SDS011;32313;48.722;9.362;2023-04-08T01:25:00;20.67;;;18.70;;
46589;SDS011;32313;48.722;9.362;2023-04-08T01:27:32;20.90;;;18.70;;
46589;SDS011;32313;48.722;9.362;2023-04-08T01:29:59;23.00;;;20.73;;
46589;SDS011;32313;48.722;9.362;2023-04-08T01:32:29;24.37;;;21.83;;
46589;SDS011;32313;48.722;9.362;2023-04-08T01:34:57;21.97;;;19.70;;
46589;SDS011;32313;48.722;9.362;2023-04-08T01:37:27;21.70;;;19.50;;
46589;SDS011;32313;48.722;9.362;2023-04-08T01:39:54;24.70;;;22.20;;
46589;SDS011;32313;48.722;9.362;2023-04-08T01:42:24;20.47;;;18.37;;
46589;SDS011;32313;48.722;9.362;2023-04-08T01:44:52;21.60;;;19.40;;
46589;SDS011;32313;48.722;9.362;2023-04-08T01:47:21;22.47;;;20.17;;
46589;SDS011;32313;48.722;9.362;2023-04-08T01:49:49;24.23;;;21.73;;
46589;SDS011;32313;48.722;9.362;2023-04-08T01:52:17;23.00;;;20.70;;
46589;SDS011;32313;48.722;9.362;2023-04-08T01:54:44;22.50;;;20.20;;
46589;SDS011;32313;48.722;9.362;2023-04-08T01:57:13;23.17;;;20.77;;
46589;SDS011;32313;48.722;9.362;2023-04-08T01:59:47;23.27;;;20.93;;
46589;SDS011;32313;48.722;9.362;2023-04-08T02:02:16;23.00;;;20.67;;
46589;SDS011;32313;48.722;9.362;2023-04-08T02:04:46;24.97;;;22.57;;
46589;SDS011;32313;48.722;9.362;2023-04-08T02:07:12;24.83;;;22.27;;
46589;SDS011;32313;48.722;9.362;2023-04-08T02:09:38;24.63;;;22.17;;
46589;SDS011;32313;48.722;9.362;2023-04-08T02:12:04;24.33;;;21.83;;
46589;SDS011;32313;48.722;9.362;2023-04-08T02:14:30;24.07;;;21.60;;
46589;SDS011;32313;48.722;9.362;2023-04-08T02:17:05;23.83;;;21.33;;
46589;SDS011;32313;48.722;9.362;2023-04-08T02:19:39;23.00;;;20.70;;
46589;SDS011;32313;48.722;9.362;2023-04-08T02:22:16;23.10;;;20.70;;
46589;SDS011;32313;48.722;9.362;2023-04-08T02:25:03;24.10;;;21.67;;
46589;SDS011;32313;48.722;9.362;2023-04-08T02:27:33;23.20;;;20.90;;
46589;SDS011;32313;48.722;9.362;2023-04-08T02:30:00;23.20;;;20.87;;
46589;SDS011;32313;48.722;9.362;2023-04-08T02:32:29;22.13;;;19.93;;
46589;SDS011;32313;48.722;9.362;2023-04-08T02:34:58;23.53;;;21.13;;
46589;SDS011;32313;48.722;9.362;2023-04-08T02:37:29;24.20;;;21.53;;
46589;SDS011;32313;48.722;9.362;2023-04-08T02:39:55;22.77;;;20.57;;
46589;SDS011;32313;48.722;9.362;2023-04-08T02:42:21;24.10;;;21.40;;
46589;SDS011;32313;48.722;9.362;2023-04-08T02:44:47;23.83;;;21.57;;
46589;SDS011;32313;48.722;9.362;2023-04-08T02:47:13;23.60;;;21.33;;
46589;SDS011;32313;48.722;9.362;2023-04-08T02:49:38;22.13;;;19.93;;
46589;SDS011;32313;48.722;9.362;2023-04-08T02:52:04;22.67;;;20.47;;
46589;SDS011;32313;48.722;9.362;2023-04-08T02:54:30;20.80;;;18.70;;
46589;SDS011;32313;48.722;9.362;2023-04-08T02:56:56;24.03;;;21.57;;
46589;SDS011;32313;48.722;9.362;2023-04-08T02:59:21;23.93;;;21.47;;
46589;SDS011;32313;48.722;9.362;2023-04-08T03:01:47;22.40;;;19.90;;
46589;SDS011;32313;48.722;9.362;2023-04-08T03:04:13;24.13;;;21.73;;
46589;SDS011;32313;48.722;9.362;2023-04-08T03:06:38;23.47;;;21.17;;
46589;SDS011;32313;48.722;9.362;2023-04-08T03:09:04;22.93;;;20.50;;
46589;SDS011;32313;48.722;9.362;2023-04-08T03:11:30;22.67;;;20.40;;
46589;SDS011;32313;48.722;9.362;2023-04-08T03:13:56;22.13;;;20.03;;
46589;SDS011;32313;48.722;9.362;2023-04-08T03:16:22;23.77;;;21.40;;
46589;SDS011;32313;48.722;9.362;2023-04-08T03:18:48;23.47;;;21.17;;
46589;SDS011;32313;48.722;9.362;2023-04-08T03:21:15;23.23;;;20.73;;
46589;SDS011;32313;48.722;9.362;2023-04-08T03:23:41;21.40;;;19.30;;
46589;SDS011;32313;48.722;9.362;2023-04-08T03:26:07;21.50;;;19.30;;
46589;SDS011;32313;48.722;9.362;2023-04-08T03:28:32;22.27;;;20.00;;
46589;SDS011;32313;48.722;9.362;2023-04-08T03:30:58;22.00;;;19.10;;
46589;SDS011;32313;48.722;9.362;2023-04-08T03:33:25;22.53;;;20.27;;
46589;SDS011;32313;48.722;9.362;2023-04-08T03:35:52;22.50;;;20.23;;
46589;SDS011;32313;48.722;9.362;2023-04-08T03:38:18;22.97;;;20.57;;
46589;SDS011;32313;48.722;9.362;2023-04-08T03:40:43;23.40;;;20.83;;
46589;SDS011;32313;48.722;9.362;2023-04-08T03:43:09;21.03;;;18.83;;
46589;SDS011;32313;48.722;9.362;2023-04-08T03:45:36;21.43;;;19.27;;
46589;SDS011;32313;48.722;9.362;2023-04-08T03:48:02;20.17;;;18.30;;
46589;SDS011;32313;48.722;9.362;2023-04-08T03:50:27;22.30;;;20.10;;
46589;SDS011;32313;48.722;9.362;2023-04-08T03:52:53;21.90;;;19.70;;
46589;SDS011;32313;48.722;9.362;2023-04-08T03:55:19;22.87;;;20.53;;
46589;SDS011;32313;48.722;9.362;2023-04-08T03:57:45;22.77;;;20.27;;
46589;SDS011;32313;48.722;9.362;2023-04-08T04:00:10;22.30;;;20.00;;
46589;SDS011;32313;48.722;9.362;2023-04-08T04:02:39;23.90;;;21.47;;
46589;SDS011;32313;48.722;9.362;2023-04-08T04:05:05;20.97;;;18.73;;
46589;SDS011;32313;48.722;9.362;2023-04-08T04:07:31;23.43;;;21.03;;
46589;SDS011;32313;48.722;9.362;2023-04-08T04:09:56;23.73;;;21.33;;
46589;SDS011;32313;48.722;9.362;2023-04-08T04:12:22;26.03;;;23.30;;
46589;SDS011;32313;48.722;9.362;2023-04-08T04:14:48;22.07;;;19.80;;
46589;SDS011;32313;48.722;9.362;2023-04-08T04:17:14;24.37;;;21.77;;
46589;SDS011;32313;48.722;9.362;2023-04-08T04:19:40;23.53;;;20.90;;
46589;SDS011;32313;48.722;9.362;2023-04-08T04:22:06;24.77;;;20.87;;
46589;SDS011;32313;48.722;9.362;2023-04-08T04:24:32;22.93;;;20.53;;
46589;SDS011;32313;48.722;9.362;2023-04-08T04:26:57;24.23;;;21.57;;
46589;SDS011;32313;48.722;9.362;2023-04-08T04:29:26;24.37;;;21.77;;
46589;SDS011;32313;48.722;9.362;2023-04-08T04:31:52;26.50;;;22.17;;
46589;SDS011;32313;48.722;9.362;2023-04-08T04:34:17;25.03;;;22.33;;
46589;SDS011;32313;48.722;9.362;2023-04-08T04:36:43;24.53;;;21.93;;
46589;SDS011;32313;48.722;9.362;2023-04-08T04:39:09;26.40;;;23.33;;
46589;SDS011;32313;48.722;9.362;2023-04-08T04:41:34;24.27;;;21.47;;
46589;SDS011;32313;48.722;9.362;2023-04-08T04:44:04;28.07;;;23.67;;
46589;SDS011;32313;48.722;9.362;2023-04-08T04:46:30;29.57;;;24.37;;
46589;SDS011;32313;48.722;9.362;2023-04-08T04:48:56;27.97;;;24.00;;
46589;SDS011;32313;48.722;9.362;2023-04-08T04:51:21;29.67;;;22.97;;
46589;SDS011;32313;48.722;9.362;2023-04-08T04:53:47;25.90;;;23.03;;
46589;SDS011;32313;48.722;9.362;2023-04-08T04:56:14;29.77;;;24.17;;
46589;SDS011;32313;48.722;9.362;2023-04-08T04:58:39;30.23;;;25.43;;
46589;SDS011;32313;48.722;9.362;2023-04-08T05:01:06;32.37;;;25.33;;
46589;SDS011;32313;48.722;9.362;2023-04-08T05:03:31;27.23;;;23.73;;
46589;SDS011;32313;48.722;9.362;2023-04-08T05:05:57;24.60;;;21.23;;
46589;SDS011;32313;48.722;9.362;2023-04-08T05:08:23;31.90;;;25.70;;
46589;SDS011;32313;48.722;9.362;2023-04-08T05:10:48;28.43;;;24.63;;
46589;SDS011;32313;48.722;9.362;2023-04-08T05:13:14;30.13;;;25.17;;
46589;SDS011;32313;48.722;9.362;2023-04-08T05:15:41;27.53;;;24.13;;
46589;SDS011;32313;48.722;9.362;2023-04-08T05:18:12;32.33;;;25.53;;
46589;SDS011;32313;48.722;9.362;2023-04-08T05:20:38;30.77;;;24.97;;
46589;SDS011;32313;48.722;9.362;2023-04-08T05:23:04;31.37;;;24.77;;
46589;SDS011;32313;48.722;9.362;2023-04-08T05:25:30;33.67;;;25.20;;
46589;SDS011;32313;48.722;9.362;2023-04-08T05:27:55;25.73;;;21.13;;
46589;SDS011;32313;48.722;9.362;2023-04-08T05:30:21;32.43;;;26.30;;
46589;SDS011;32313;48.722;9.362;2023-04-08T05:32:47;29.10;;;23.20;;
46589;SDS011;32313;48.722;9.362;2023-04-08T05:35:13;31.80;;;26.17;;
46589;SDS011;32313;48.722;9.362;2023-04-08T05:37:38;32.27;;;25.90;;
46589;SDS011;32313;48.722;9.362;2023-04-08T05:40:04;26.73;;;22.67;;
46589;SDS011;32313;48.722;9.362;2023-04-08T05:42:31;29.33;;;22.87;;
46589;SDS011;32313;48.722;9.362;2023-04-08T05:44:56;29.23;;;24.50;;
46589;SDS011;32313;48.722;9.362;2023-04-08T05:47:22;27.53;;;22.03;;
46589;SDS011;32313;48.722;9.362;2023-04-08T05:49:48;28.20;;;23.70;;
46589;SDS011;32313;48.722;9.362;2023-04-08T05:52:14;29.43;;;23.10;;
46589;SDS011;32313;48.722;9.362;2023-04-08T05:54:43;30.37;;;24.93;;
46589;SDS011;32313;48.722;9.362;2023-04-08T05:57:10;33.27;;;25.90;;
46589;SDS011;32313;48.722;9.362;2023-04-08T05:59:36;28.40;;;23.57;;
46589;SDS011;32313;48.722;9.362;2023-04-08T06:02:01;29.13;;;24.07;;
46589;SDS011;32313;48.722;9.362;2023-04-08T06:04:27;29.70;;;24.77;;
46589;SDS011;32313;48.722;9.362;2023-04-08T06:06:54;29.87;;;24.60;;
46589;SDS011;32313;48.722;9.362;2023-04-08T06:09:21;26.17;;;21.77;;
46589;SDS011;32313;48.722;9.362;2023-04-08T06:11:47;29.30;;;24.00;;
46589;SDS011;32313;48.722;9.362;2023-04-08T06:14:14;29.73;;;24.00;;
46589;SDS011;32313;48.722;9.362;2023-04-08T06:16:40;27.23;;;24.30;;
46589;SDS011;32313;48.722;9.362;2023-04-08T06:19:05;28.70;;;24.73;;
46589;SDS011;32313;48.722;9.362;2023-04-08T06:21:31;27.30;;;22.93;;
46589;SDS011;32313;48.722;9.362;2023-04-08T06:23:57;31.23;;;25.97;;
46589;SDS011;32313;48.722;9.362;2023-04-08T06:26:22;27.80;;;24.27;;
46589;SDS011;32313;48.722;9.362;2023-04-08T06:28:48;28.93;;;25.27;;
46589;SDS011;32313;48.722;9.362;2023-04-08T06:31:14;28.33;;;25.23;;
46589;SDS011;32313;48.722;9.362;2023-04-08T06:33:40;28.03;;;23.73;;
46589;SDS011;32313;48.722;9.362;2023-04-08T06:36:06;28.57;;;25.67;;
46589;SDS011;32313;48.722;9.362;2023-04-08T06:38:32;27.00;;;24.20;;
46589;SDS011;32313;48.722;9.362;2023-04-08T06:41:02;28.50;;;24.67;;
46589;SDS011;32313;48.722;9.362;2023-04-08T06:43:28;28.30;;;23.90;;
46589;SDS011;32313;48.722;9.362;2023-04-08T06:45:55;24.63;;;22.03;;
46589;SDS011;32313;48.722;9.362;2023-04-08T06:48:20;26.47;;;23.80;;
46589;SDS011;32313;48.722;9.362;2023-04-08T06:50:47;25.33;;;22.63;;
46589;SDS011;32313;48.722;9.362;2023-04-08T06:53:13;22.63;;;20.33;;
46589;SDS011;32313;48.722;9.362;2023-04-08T06:55:39;22.10;;;19.80;;
46589;SDS011;32313;48.722;9.362;2023-04-08T06:58:05;21.83;;;19.60;;
46589;SDS011;32313;48.722;9.362;2023-04-08T07:00:31;20.63;;;18.43;;
46589;SDS011;32313;48.722;9.362;2023-04-08T07:02:56;21.50;;;19.50;;
46589;SDS011;32313;48.722;9.362;2023-04-08T07:05:22;19.43;;;17.53;;
46589;SDS011;32313;48.722;9.362;2023-04-08T07:07:47;18.63;;;16.90;;
46589;SDS011;32313;48.722;9.362;2023-04-08T07:10:13;18.13;;;16.30;;
46589;SDS011;32313;48.722;9.362;2023-04-08T07:12:39;17.67;;;15.87;;
46589;SDS011;32313;48.722;9.362;2023-04-08T07:15:05;18.87;;;17.17;;
46589;SDS011;32313;48.722;9.362;2023-04-08T07:17:35;17.33;;;15.63;;
46589;SDS011;32313;48.722;9.362;2023-04-08T07:20:00;18.07;;;16.37;;
46589;SDS011;32313;48.722;9.362;2023-04-08T07:22:26;19.90;;;18.00;;
46589;SDS011;32313;48.722;9.362;2023-04-08T07:24:52;20.43;;;18.27;;
46589;SDS011;32313;48.722;9.362;2023-04-08T07:27:18;19.27;;;17.40;;
46589;SDS011;32313;48.722;9.362;2023-04-08T07:29:44;19.70;;;17.70;;
46589;SDS011;32313;48.722;9.362;2023-04-08T07:32:09;19.87;;;17.87;;
46589;SDS011;32313;48.722;9.362;2023-04-08T07:34:35;20.53;;;18.50;;
46589;SDS011;32313;48.722;9.362;2023-04-08T07:37:01;18.37;;;16.47;;
46589;SDS011;32313;48.722;9.362;2023-04-08T07:39:27;19.77;;;17.77;;
46589;SDS011;32313;48.722;9.362;2023-04-08T07:41:52;17.33;;;15.63;;
46589;SDS011;32313;48.722;9.362;2023-04-08T07:44:18;17.10;;;15.37;;
46589;SDS011;32313;48.722;9.362;2023-04-08T07:46:44;18.07;;;16.20;;
46589;SDS011;32313;48.722;9.362;2023-04-08T07:49:13;16.93;;;15.33;;
46589;SDS011;32313;48.722;9.362;2023-04-08T07:51:38;17.00;;;15.30;;
46589;SDS011;32313;48.722;9.362;2023-04-08T07:54:04;18.63;;;16.83;;
46589;SDS011;32313;48.722;9.362;2023-04-08T07:56:30;16.73;;;15.17;;
46589;SDS011;32313;48.722;9.362;2023-04-08T07:58:56;15.17;;;13.67;;
46589;SDS011;32313;48.722;9.362;2023-04-08T08:01:22;18.10;;;16.37;;
46589;SDS011;32313;48.722;9.362;2023-04-08T08:03:49;16.07;;;14.60;;
46589;SDS011;32313;48.722;9.362;2023-04-08T08:06:15;17.77;;;15.97;;
46589;SDS011;32313;48.722;9.362;2023-04-08T08:08:41;16.77;;;15.23;;
46589;SDS011;32313;48.722;9.362;2023-04-08T08:11:07;17.17;;;15.60;;
46589;SDS011;32313;48.722;9.362;2023-04-08T08:13:33;17.30;;;15.57;;
46589;SDS011;32313;48.722;9.362;2023-04-08T08:16:04;17.60;;;16.00;;
46589;SDS011;32313;48.722;9.362;2023-04-08T08:18:32;19.27;;;17.37;;
46589;SDS011;32313;48.722;9.362;2023-04-08T08:21:00;18.03;;;16.23;;
46589;SDS011;32313;48.722;9.362;2023-04-08T08:23:26;17.37;;;15.70;;
46589;SDS011;32313;48.722;9.362;2023-04-08T08:26:01;18.33;;;16.27;;
46589;SDS011;32313;48.722;9.362;2023-04-08T08:28:30;17.63;;;15.93;;
46589;SDS011;32313;48.722;9.362;2023-04-08T08:30:58;17.90;;;16.13;;
46589;SDS011;32313;48.722;9.362;2023-04-08T08:33:24;17.00;;;15.20;;
46589;SDS011;32313;48.722;9.362;2023-04-08T08:35:50;17.80;;;16.03;;
46589;SDS011;32313;48.722;9.362;2023-04-08T08:38:19;18.60;;;16.60;;
46589;SDS011;32313;48.722;9.362;2023-04-08T08:40:44;18.30;;;16.50;;
46589;SDS011;32313;48.722;9.362;2023-04-08T08:43:10;15.13;;;13.73;;
46589;SDS011;32313;48.722;9.362;2023-04-08T08:45:39;16.23;;;14.70;;
46589;SDS011;32313;48.722;9.362;2023-04-08T08:48:06;15.47;;;14.07;;
46589;SDS011;32313;48.722;9.362;2023-04-08T08:50:33;14.80;;;13.50;;
46589;SDS011;32313;48.722;9.362;2023-04-08T08:53:02;15.93;;;14.43;;
46589;SDS011;32313;48.722;9.362;2023-04-08T08:55:29;15.03;;;13.53;;
46589;SDS011;32313;48.722;9.362;2023-04-08T08:57:58;16.57;;;14.90;;
46589;SDS011;32313;48.722;9.362;2023-04-08T09:00:38;14.90;;;13.40;;
46589;SDS011;32313;48.722;9.362;2023-04-08T09:03:16;11.87;;;10.87;;
46589;SDS011;32313;48.722;9.362;2023-04-08T09:08:32;13.90;;;12.60;;
46589;SDS011;32313;48.722;9.362;2023-04-08T09:13:54;13.07;;;11.90;;
46589;SDS011;32313;48.722;9.362;2023-04-08T09:16:21;12.00;;;10.90;;
46589;SDS011;32313;48.722;9.362;2023-04-08T09:18:48;13.43;;;12.10;;
46589;SDS011;32313;48.722;9.362;2023-04-08T09:21:14;11.30;;;10.30;;
46589;SDS011;32313;48.722;9.362;2023-04-08T09:23:47;14.53;;;13.23;;
46589;SDS011;32313;48.722;9.362;2023-04-08T09:26:16;14.53;;;13.13;;
46589;SDS011;32313;48.722;9.362;2023-04-08T09:29:02;13.30;;;12.00;;
46589;SDS011;32313;48.722;9.362;2023-04-08T09:31:30;13.00;;;11.90;;
46589;SDS011;32313;48.722;9.362;2023-04-08T09:34:23;12.20;;;11.10;;
46589;SDS011;32313;48.722;9.362;2023-04-08T09:36:49;13.00;;;11.70;;
46589;SDS011;32313;48.722;9.362;2023-04-08T09:39:15;13.10;;;11.90;;
46589;SDS011;32313;48.722;9.362;2023-04-08T09:41:41;10.30;;;9.27;;
46589;SDS011;32313;48.722;9.362;2023-04-08T09:44:08;11.57;;;10.57;;
46589;SDS011;32313;48.722;9.362;2023-04-08T09:46:39;11.00;;;10.10;;
46589;SDS011;32313;48.722;9.362;2023-04-08T09:52:14;12.20;;;11.10;;
46589;SDS011;32313;48.722;9.362;2023-04-08T09:54:54;12.23;;;11.13;;
46589;SDS011;32313;48.722;9.362;2023-04-08T10:00:37;11.53;;;10.43;;
46589;SDS011;32313;48.722;9.362;2023-04-08T10:05:48;9.20;;;8.40;;
46589;SDS011;32313;48.722;9.362;2023-04-08T10:08:16;11.10;;;10.00;;
46589;SDS011;32313;48.722;9.362;2023-04-08T10:10:42;12.00;;;10.70;;
46589;SDS011;32313;48.722;9.362;2023-04-08T10:13:09;12.63;;;11.43;;
46589;SDS011;32313;48.722;9.362;2023-04-08T10:15:35;10.83;;;9.80;;
46589;SDS011;32313;48.722;9.362;2023-04-08T10:23:03;11.07;;;10.03;;
46589;SDS011;32313;48.722;9.362;2023-04-08T10:27:56;9.70;;;8.80;;
46589;SDS011;32313;48.722;9.362;2023-04-08T10:32:57;10.20;;;9.20;;
46589;SDS011;32313;48.722;9.362;2023-04-08T10:35:34;15.47;;;14.03;;
46589;SDS011;32313;48.722;9.362;2023-04-08T10:38:01;14.30;;;13.00;;
46589;SDS011;32313;48.722;9.362;2023-04-08T10:40:27;14.83;;;13.53;;
46589;SDS011;32313;48.722;9.362;2023-04-08T10:42:57;14.00;;;12.67;;
46589;SDS011;32313;48.722;9.362;2023-04-08T10:45:23;12.73;;;11.53;;
46589;SDS011;32313;48.722;9.362;2023-04-08T10:47:49;13.60;;;12.30;;
46589;SDS011;32313;48.722;9.362;2023-04-08T10:50:16;14.70;;;13.27;;
46589;SDS011;32313;48.722;9.362;2023-04-08T10:52:47;13.73;;;12.53;;
46589;SDS011;32313;48.722;9.362;2023-04-08T10:55:14;14.90;;;13.50;;
46589;SDS011;32313;48.722;9.362;2023-04-08T10:57:40;12.13;;;11.10;;
46589;SDS011;32313;48.722;9.362;2023-04-08T11:00:09;13.60;;;12.40;;
46589;SDS011;32313;48.722;9.362;2023-04-08T11:02:39;12.60;;;11.37;;
46589;SDS011;32313;48.722;9.362;2023-04-08T11:05:04;11.90;;;10.80;;
46589;SDS011;32313;48.722;9.362;2023-04-08T11:07:31;13.67;;;12.47;;
46589;SDS011;32313;48.722;9.362;2023-04-08T11:09:57;13.27;;;12.07;;
46589;SDS011;32313;48.722;9.362;2023-04-08T11:12:27;14.70;;;12.40;;
46589;SDS011;32313;48.722;9.362;2023-04-08T11:14:53;13.60;;;12.20;;
46589;SDS011;32313;48.722;9.362;2023-04-08T11:17:18;13.63;;;12.43;;
46589;SDS011;32313;48.722;9.362;2023-04-08T11:19:45;14.10;;;12.03;;
46589;SDS011;32313;48.722;9.362;2023-04-08T11:22:11;11.37;;;10.37;;
46589;SDS011;32313;48.722;9.362;2023-04-08T11:24:37;12.53;;;11.43;;
46589;SDS011;32313;48.722;9.362;2023-04-08T11:27:03;13.50;;;12.07;;
46589;SDS011;32313;48.722;9.362;2023-04-08T11:29:32;12.40;;;11.20;;
46589;SDS011;32313;48.722;9.362;2023-04-08T11:31:58;12.90;;;11.60;;
46589;SDS011;32313;48.722;9.362;2023-04-08T11:34:24;11.67;;;10.40;;
46589;SDS011;32313;48.722;9.362;2023-04-08T11:36:51;11.43;;;10.30;;
46589;SDS011;32313;48.722;9.362;2023-04-08T11:39:17;9.90;;;9.10;;
46589;SDS011;32313;48.722;9.362;2023-04-08T11:41:47;13.60;;;11.13;;
46589;SDS011;32313;48.722;9.362;2023-04-08T11:44:14;14.00;;;11.90;;
46589;SDS011;32313;48.722;9.362;2023-04-08T11:46:40;12.60;;;11.47;;
46589;SDS011;32313;48.722;9.362;2023-04-08T11:49:16;11.37;;;10.27;;
46589;SDS011;32313;48.722;9.362;2023-04-08T11:52:02;13.00;;;11.33;;
46589;SDS011;32313;48.722;9.362;2023-04-08T11:54:28;11.70;;;10.50;;
46589;SDS011;32313;48.722;9.362;2023-04-08T11:56:54;10.20;;;9.23;;
46589;SDS011;32313;48.722;9.362;2023-04-08T11:59:22;11.67;;;10.13;;
46589;SDS011;32313;48.722;9.362;2023-04-08T12:01:48;11.20;;;10.20;;
46589;SDS011;32313;48.722;9.362;2023-04-08T12:04:15;10.20;;;9.30;;
46589;SDS011;32313;48.722;9.362;2023-04-08T12:06:42;10.80;;;9.80;;
46589;SDS011;32313;48.722;9.362;2023-04-08T12:09:10;11.00;;;10.00;;
46589;SDS011;32313;48.722;9.362;2023-04-08T12:11:37;11.07;;;9.97;;
46589;SDS011;32313;48.722;9.362;2023-04-08T12:14:02;10.40;;;9.27;;
46589;SDS011;32313;48.722;9.362;2023-04-08T12:16:28;9.97;;;9.07;;
46589;SDS011;32313;48.722;9.362;2023-04-08T12:18:54;9.47;;;8.60;;
46589;SDS011;32313;48.722;9.362;2023-04-08T12:21:20;11.70;;;10.67;;
46589;SDS011;32313;48.722;9.362;2023-04-08T12:23:45;10.10;;;9.20;;
46589;SDS011;32313;48.722;9.362;2023-04-08T12:26:11;10.30;;;9.43;;
46589;SDS011;32313;48.722;9.362;2023-04-08T12:28:42;11.70;;;10.60;;
46589;SDS011;32313;48.722;9.362;2023-04-08T12:31:09;11.90;;;10.70;;
46589;SDS011;32313;48.722;9.362;2023-04-08T12:33:35;11.47;;;10.33;;
46589;SDS011;32313;48.722;9.362;2023-04-08T12:36:00;11.00;;;10.03;;
46589;SDS011;32313;48.722;9.362;2023-04-08T12:38:26;10.47;;;9.47;;
46589;SDS011;32313;48.722;9.362;2023-04-08T12:40:51;9.97;;;8.97;;
46589;SDS011;32313;48.722;9.362;2023-04-08T12:43:18;11.13;;;10.13;;
46589;SDS011;32313;48.722;9.362;2023-04-08T12:45:43;11.93;;;10.87;;
46589;SDS011;32313;48.722;9.362;2023-04-08T12:48:09;11.53;;;10.47;;
46589;SDS011;32313;48.722;9.362;2023-04-08T12:50:35;12.17;;;11.07;;
46589;SDS011;32313;48.722;9.362;2023-04-08T12:53:00;11.03;;;10.03;;
46589;SDS011;32313;48.722;9.362;2023-04-08T12:55:26;12.00;;;10.90;;
46589;SDS011;32313;48.722;9.362;2023-04-08T12:57:52;11.63;;;10.63;;
46589;SDS011;32313;48.722;9.362;2023-04-08T13:00:18;11.47;;;10.27;;
46589;SDS011;32313;48.722;9.362;2023-04-08T13:02:44;11.73;;;10.73;;
46589;SDS011;32313;48.722;9.362;2023-04-08T13:05:10;10.87;;;9.83;;
46589;SDS011;32313;48.722;9.362;2023-04-08T13:07:36;12.43;;;11.20;;
46589;SDS011;32313;48.722;9.362;2023-04-08T13:10:02;12.50;;;10.50;;
46589;SDS011;32313;48.722;9.362;2023-04-08T13:12:28;10.83;;;9.83;;
46589;SDS011;32313;48.722;9.362;2023-04-08T13:14:54;11.40;;;10.40;;
46589;SDS011;32313;48.722;9.362;2023-04-08T13:17:20;11.37;;;10.37;;
46589;SDS011;32313;48.722;9.362;2023-04-08T13:19:45;11.77;;;10.57;;
46589;SDS011;32313;48.722;9.362;2023-04-08T13:22:14;10.77;;;9.87;;
46589;SDS011;32313;48.722;9.362;2023-04-08T13:24:40;11.47;;;10.47;;
46589;SDS011;32313;48.722;9.362;2023-04-08T13:27:06;12.47;;;11.27;;
46589;SDS011;32313;48.722;9.362;2023-04-08T13:29:32;13.63;;;12.53;;
46589;SDS011;32313;48.722;9.362;2023-04-08T13:31:58;12.60;;;11.47;;
46589;SDS011;32313;48.722;9.362;2023-04-08T13:34:25;12.13;;;11.03;;
46589;SDS011;32313;48.722;9.362;2023-04-08T13:36:51;12.50;;;11.40;;
46589;SDS011;32313;48.722;9.362;2023-04-08T13:39:17;12.43;;;11.33;;
46589;SDS011;32313;48.722;9.362;2023-04-08T13:41:42;11.53;;;10.53;;
46589;SDS011;32313;48.722;9.362;2023-04-08T13:44:08;10.90;;;9.90;;
46589;SDS011;32313;48.722;9.362;2023-04-08T13:46:34;13.00;;;11.80;;
46589;SDS011;32313;48.722;9.362;2023-04-08T13:49:00;12.23;;;11.10;;
46589;SDS011;32313;48.722;9.362;2023-04-08T13:51:27;12.73;;;11.43;;
46589;SDS011;32313;48.722;9.362;2023-04-08T13:53:53;12.60;;;11.50;;
46589;SDS011;32313;48.722;9.362;2023-04-08T13:56:19;12.70;;;11.63;;
46589;SDS011;32313;48.722;9.362;2023-04-08T13:58:45;11.80;;;10.77;;
46589;SDS011;32313;48.722;9.362;2023-04-08T14:01:11;11.50;;;10.50;;
46589;SDS011;32313;48.722;9.362;2023-04-08T14:03:37;12.03;;;11.03;;
46589;SDS011;32313;48.722;9.362;2023-04-08T14:06:02;13.07;;;12.00;;
46589;SDS011;32313;48.722;9.362;2023-04-08T14:08:28;12.53;;;11.43;;
46589;SDS011;32313;48.722;9.362;2023-04-08T14:10:54;12.63;;;11.43;;
46589;SDS011;32313;48.722;9.362;2023-04-08T14:13:20;12.50;;;11.30;;
46589;SDS011;32313;48.722;9.362;2023-04-08T14:15:46;12.77;;;11.67;;
46589;SDS011;32313;48.722;9.362;2023-04-08T14:18:13;13.27;;;12.03;;
46589;SDS011;32313;48.722;9.362;2023-04-08T14:20:41;12.10;;;11.00;;
46589;SDS011;32313;48.722;9.362;2023-04-08T14:23:07;13.00;;;11.80;;
46589;SDS011;32313;48.722;9.362;2023-04-08T14:25:32;11.93;;;10.73;;
46589;SDS011;32313;48.722;9.362;2023-04-08T14:27:58;14.10;;;12.73;;
46589;SDS011;32313;48.722;9.362;2023-04-08T14:30:24;11.07;;;10.03;;
46589;SDS011;32313;48.722;9.362;2023-04-08T14:32:51;12.20;;;11.00;;
46589;SDS011;32313;48.722;9.362;2023-04-08T14:35:16;12.20;;;11.10;;
46589;SDS011;32313;48.722;9.362;2023-04-08T14:37:42;11.27;;;10.17;;
46589;SDS011;32313;48.722;9.362;2023-04-08T14:40:08;11.20;;;10.20;;
46589;SDS011;32313;48.722;9.362;2023-04-08T14:42:34;12.67;;;11.40;;
46589;SDS011;32313;48.722;9.362;2023-04-08T14:45:00;11.50;;;10.50;;
46589;SDS011;32313;48.722;9.362;2023-04-08T14:47:26;11.50;;;10.50;;
46589;SDS011;32313;48.722;9.362;2023-04-08T14:49:51;12.03;;;10.90;;